createdAt,value
2023-02-01T00:15:08.089Z,6.70
2023-02-01T00:25:48.510Z,6.60
2023-02-01T00:29:05.132Z,6.60
2023-02-01T00:35:04.765Z,6.50
2023-02-01T00:47:17.386Z,6.50
2023-02-01T00:50:11.006Z,6.50
2023-02-01T00:59:54.750Z,6.40
2023-02-01T01:02:47.900Z,6.40
2023-02-01T01:05:38.437Z,6.40
2023-02-01T01:12:01.147Z,6.40
2023-02-01T01:15:29.813Z,6.40
2023-02-01T01:35:17.467Z,6.30
2023-02-01T01:48:26.552Z,6.30
2023-02-01T01:56:01.652Z,6.40
2023-02-01T02:01:29.980Z,6.40
2023-02-01T02:07:13.744Z,6.40
2023-02-01T02:10:19.811Z,6.40
2023-02-01T02:13:00.617Z,6.30
2023-02-01T02:15:36.010Z,6.40
2023-02-01T02:25:02.491Z,6.40
2023-02-01T02:31:35.211Z,6.40
2023-02-01T02:42:03.661Z,6.40
2023-02-01T02:45:17.614Z,6.40
2023-02-01T02:48:10.662Z,6.30
2023-02-01T02:54:25.419Z,6.30
2023-02-01T02:57:11.287Z,6.30
2023-02-01T03:00:13.385Z,6.40
2023-02-01T03:03:08.387Z,6.50
2023-02-01T03:06:11.722Z,6.50
2023-02-01T03:08:45.526Z,6.60
2023-02-01T03:11:53.508Z,6.70
2023-02-01T03:14:34.455Z,6.70
2023-02-01T03:36:40.031Z,6.60
2023-02-01T03:39:49.971Z,6.60
2023-02-01T03:48:43.402Z,6.60
2023-02-01T04:09:56.964Z,6.50
2023-02-01T04:12:40.796Z,6.50
2023-02-01T04:15:37.114Z,6.50
2023-02-01T04:18:11.580Z,6.50
2023-02-01T04:20:46.291Z,6.50
2023-02-01T04:23:13.511Z,6.50
2023-02-01T04:25:59.945Z,6.50
2023-02-01T04:28:35.708Z,6.50
2023-02-01T04:31:02.871Z,6.50
2023-02-01T04:33:36.014Z,6.40
2023-02-01T04:36:06.364Z,6.50
2023-02-01T04:38:38.555Z,6.40
2023-02-01T04:41:31.206Z,6.40
2023-02-01T04:44:05.612Z,6.40
2023-02-01T04:46:58.208Z,6.40
2023-02-01T04:49:28.736Z,6.50
2023-02-01T04:52:05.954Z,6.50
2023-02-01T04:54:38.710Z,6.50
2023-02-01T04:57:27.250Z,6.50
2023-02-01T05:00:01.946Z,6.50
2023-02-01T05:03:01.918Z,6.50
2023-02-01T05:05:42.173Z,6.50
2023-02-01T05:08:38.824Z,6.50
2023-02-01T05:11:50.967Z,6.50
2023-02-01T05:14:20.511Z,6.50
2023-02-01T05:17:13.504Z,6.40
2023-02-01T05:19:44.933Z,6.50
2023-02-01T05:22:15.847Z,6.50
2023-02-01T05:24:47.602Z,6.50
2023-02-01T05:27:27.460Z,6.50
2023-02-01T05:29:57.097Z,6.50
2023-02-01T05:32:25.485Z,6.50
2023-02-01T05:34:54.856Z,6.50
2023-02-01T05:37:36.859Z,6.50
2023-02-01T05:40:10.341Z,6.50
2023-02-01T05:42:37.376Z,6.50
2023-02-01T05:45:06.342Z,6.50
2023-02-01T05:47:35.730Z,6.50
2023-02-01T05:50:29.383Z,6.50
2023-02-01T05:53:06.543Z,6.50
2023-02-01T05:55:33.901Z,6.50
2023-02-01T05:58:08.254Z,6.50
2023-02-01T06:00:42.671Z,6.50
2023-02-01T06:03:45.622Z,6.50
2023-02-01T06:06:03.549Z,6.50
2023-02-01T06:08:33.173Z,6.40
2023-02-01T06:11:04.394Z,6.40
2023-02-01T06:13:39.750Z,6.50
2023-02-01T06:16:12.544Z,6.40
2023-02-01T06:18:43.253Z,6.40
2023-02-01T06:21:10.404Z,6.40
2023-02-01T06:23:50.344Z,6.40
2023-02-01T06:26:23.974Z,6.50
2023-02-01T06:28:51.369Z,6.50
2023-02-01T06:31:27.865Z,6.50
2023-02-01T06:33:58.615Z,6.50
2023-02-01T06:36:28.249Z,6.50
2023-02-01T06:39:31.060Z,6.50
2023-02-01T06:49:28.643Z,6.50
2023-02-01T06:52:11.956Z,6.50
2023-02-01T06:54:49.994Z,6.50
2023-02-01T06:57:20.179Z,6.50
2023-02-01T06:59:54.215Z,6.50
2023-02-01T07:02:24.381Z,6.50
2023-02-01T07:04:52.945Z,6.50
2023-02-01T07:07:23.738Z,6.50
2023-02-01T07:09:54.357Z,6.50
2023-02-01T07:12:35.031Z,6.50
2023-02-01T07:15:08.020Z,6.50
2023-02-01T07:18:00.900Z,6.50
2023-02-01T07:20:47.155Z,6.50
2023-02-01T07:23:17.381Z,6.60
2023-02-01T07:25:50.346Z,6.60
2023-02-01T07:28:17.838Z,6.60
2023-02-01T07:30:52.261Z,6.60
2023-02-01T07:33:28.725Z,6.60
2023-02-01T07:35:55.754Z,6.70
2023-02-01T07:38:36.261Z,6.70
2023-02-01T07:41:30.500Z,6.70
2023-02-01T07:44:03.895Z,6.80
2023-02-01T07:46:34.630Z,6.80
2023-02-01T07:49:01.719Z,6.80
2023-02-01T07:51:46.978Z,6.80
2023-02-01T07:54:14.169Z,6.80
2023-02-01T07:56:50.905Z,6.70
2023-02-01T07:59:23.498Z,6.80
2023-02-01T08:01:50.895Z,6.80
2023-02-01T08:04:17.915Z,6.80
2023-02-01T08:06:45.171Z,6.80
2023-02-01T08:09:12.450Z,6.80
2023-02-01T08:11:41.576Z,6.80
2023-02-01T08:14:08.728Z,6.80
2023-02-01T08:16:43.192Z,6.80
2023-02-01T08:19:10.380Z,6.80
2023-02-01T08:22:27.004Z,6.80
2023-02-01T08:31:20.922Z,6.80
2023-02-01T08:36:39.509Z,6.90
2023-02-01T08:42:19.610Z,6.90
2023-02-01T08:45:16.546Z,7.00
2023-02-01T08:47:42.550Z,7.00
2023-02-01T08:50:10.387Z,7.00
2023-02-01T08:52:38.282Z,7.00
2023-02-01T08:55:06.859Z,7.00
2023-02-01T08:57:35.030Z,7.00
2023-02-01T09:00:40.070Z,7.10
2023-02-01T09:04:12.914Z,7.10
2023-02-01T09:56:17.130Z,7.90
2023-02-01T09:59:14.218Z,8.00
2023-02-01T10:01:41.350Z,8.00
2023-02-01T10:04:11.826Z,8.00
2023-02-01T10:07:06.557Z,8.00
2023-02-01T10:36:08.076Z,8.50
2023-02-01T10:50:01.081Z,8.70
2023-02-01T11:10:07.792Z,9.10
2023-02-01T11:12:41.827Z,9.10
2023-02-01T11:15:39.444Z,9.10
2023-02-01T11:18:24.296Z,9.20
2023-02-01T11:20:53.525Z,9.20
2023-02-01T11:23:24.956Z,9.30
2023-02-01T11:26:12.901Z,9.30
2023-02-01T11:28:57.296Z,9.40
2023-02-01T11:31:49.256Z,9.40
2023-02-01T11:34:40.148Z,9.50
2023-02-01T12:10:10.293Z,9.80
2023-02-01T12:10:59.888Z,9.80
2023-02-01T12:21:08.144Z,10.10
2023-02-01T14:24:29.950Z,12.00
2023-02-01T14:27:17.455Z,12.00
2023-02-01T14:29:46.031Z,12.10
2023-02-01T14:32:49.307Z,12.10
2023-02-01T14:36:23.086Z,12.10
2023-02-01T14:39:01.171Z,12.00
2023-02-01T14:41:31.480Z,12.00
2023-02-01T16:45:52.662Z,11.10
2023-02-01T16:48:30.926Z,11.10
2023-02-01T16:51:27.674Z,11.10
2023-02-01T16:54:00.354Z,11.00
2023-02-01T16:57:32.858Z,11.00
2023-02-01T17:00:37.588Z,11.00
2023-02-01T20:54:57.257Z,9.30
2023-02-01T20:57:24.656Z,9.30
2023-02-01T20:59:51.530Z,9.30
2023-02-01T21:02:18.426Z,9.30
2023-02-01T21:04:45.306Z,9.40
2023-02-01T21:07:12.260Z,9.40
2023-02-01T21:09:41.567Z,9.40
2023-02-01T21:12:08.469Z,9.40
2023-02-01T21:14:35.757Z,9.50
2023-02-01T21:17:02.722Z,9.50
2023-02-01T21:19:29.646Z,9.60
2023-02-01T21:21:56.626Z,9.60
2023-02-01T21:24:23.740Z,9.60
2023-02-01T21:26:50.651Z,9.70
2023-02-01T21:29:17.933Z,9.70
2023-02-01T21:31:44.962Z,9.70
2023-02-01T21:34:11.969Z,9.70
2023-02-01T21:36:38.881Z,9.80
2023-02-01T21:39:06.794Z,9.80
2023-02-01T21:41:52.899Z,9.80
2023-02-01T21:44:19.724Z,9.90
2023-02-01T21:46:46.747Z,9.90
2023-02-01T21:49:13.709Z,9.90
2023-02-01T21:51:40.730Z,9.80
2023-02-01T21:54:08.992Z,9.90
2023-02-01T21:56:36.918Z,9.90
2023-02-01T21:59:03.799Z,9.90
2023-02-01T22:01:30.694Z,10.00
2023-02-01T22:03:57.748Z,10.00
2023-02-01T22:06:25.779Z,10.00
2023-02-01T22:08:52.683Z,10.00
2023-02-01T22:11:19.725Z,10.00
2023-02-01T22:13:46.541Z,10.00
2023-02-01T22:16:18.146Z,10.00
2023-02-01T22:18:45.516Z,10.00
2023-02-01T22:21:12.798Z,10.00
2023-02-01T22:23:39.931Z,10.00
2023-02-01T22:26:09.145Z,9.90
2023-02-01T22:28:37.011Z,9.90
2023-02-01T22:31:06.534Z,9.90
2023-02-01T22:33:33.808Z,9.90
2023-02-01T22:36:01.420Z,9.90
2023-02-01T22:38:34.107Z,9.90
2023-02-01T22:41:03.174Z,9.80
2023-02-01T22:43:30.333Z,9.80
2023-02-01T22:46:05.324Z,9.80
2023-02-01T22:48:36.037Z,9.70
2023-02-01T22:51:03.269Z,9.70
2023-02-01T22:53:30.517Z,9.70
2023-02-01T22:56:04.489Z,9.70
2023-02-01T22:58:31.704Z,9.70
2023-02-01T23:01:08.144Z,9.70
2023-02-01T23:03:39.099Z,9.80
2023-02-01T23:06:06.548Z,9.80
2023-02-01T23:08:35.544Z,9.80
2023-02-01T23:11:06.846Z,9.80
2023-02-01T23:13:34.157Z,9.80
2023-02-01T23:16:08.572Z,9.70
2023-02-01T23:18:35.595Z,9.80
2023-02-01T23:21:04.484Z,9.70
2023-02-01T23:23:31.417Z,9.80
2023-02-01T23:25:58.288Z,9.80
2023-02-01T23:28:25.389Z,9.80
2023-02-01T23:30:52.316Z,9.80
2023-02-01T23:33:24.881Z,9.80
2023-02-01T23:35:56.486Z,9.80
2023-02-01T23:38:23.471Z,9.80
2023-02-01T23:41:00.167Z,9.80
2023-02-01T23:43:46.278Z,9.80
2023-02-01T23:46:13.475Z,9.90
2023-02-01T23:48:40.286Z,9.90
2023-02-01T23:51:07.296Z,9.90
2023-02-01T23:53:34.290Z,9.90
2023-02-01T23:56:01.195Z,9.90
2023-02-01T23:58:28.080Z,9.90
